createdAt,value
2023-07-20T00:00:08.733Z,24.40
2023-07-20T00:02:45.508Z,24.30
2023-07-20T00:05:12.784Z,24.30
2023-07-20T00:07:39.980Z,24.30
2023-07-20T00:10:07.748Z,24.30
2023-07-20T00:12:34.929Z,24.20
2023-07-20T00:15:02.190Z,24.20
2023-07-20T00:17:29.496Z,24.20
2023-07-20T00:19:56.570Z,24.20
2023-07-20T00:22:24.002Z,24.10
2023-07-20T00:24:51.125Z,24.10
2023-07-20T00:27:18.296Z,24.10
2023-07-20T00:29:45.514Z,24.10
2023-07-20T00:35:27.285Z,24.00
2023-07-20T00:37:55.265Z,24.00
2023-07-20T00:40:22.429Z,23.90
2023-07-20T00:42:50.434Z,23.90
2023-07-20T00:45:25.521Z,23.90
2023-07-20T00:47:52.998Z,23.90
2023-07-20T01:42:35.874Z,23.60
2023-07-20T01:45:03.179Z,23.70
2023-07-20T01:47:30.373Z,23.70
2023-07-20T01:50:00.419Z,23.70
2023-07-20T01:52:28.213Z,23.60
2023-07-20T01:54:55.313Z,23.60
2023-07-20T01:57:22.646Z,23.60
2023-07-20T01:59:49.829Z,23.60
2023-07-20T04:51:31.664Z,23.60
2023-07-20T04:53:59.678Z,23.80
2023-07-20T04:56:32.321Z,23.80
2023-07-20T04:58:59.692Z,23.90
2023-07-20T05:01:27.932Z,23.80
2023-07-20T05:03:55.256Z,24.00
2023-07-20T05:06:23.243Z,24.10
2023-07-20T05:08:50.514Z,24.20
2023-07-20T05:11:17.799Z,24.20
2023-07-20T05:13:46.510Z,24.30
2023-07-20T05:16:14.200Z,24.30
2023-07-20T05:18:41.710Z,24.50
2023-07-20T05:21:09.890Z,24.50
2023-07-20T05:23:38.054Z,24.40
2023-07-20T05:26:05.266Z,24.50
2023-07-20T05:28:32.345Z,24.60
2023-07-20T05:31:03.050Z,24.80
2023-07-20T05:33:30.518Z,24.80
2023-07-20T05:35:57.773Z,24.90
2023-07-20T05:38:25.528Z,25.00
2023-07-20T05:40:52.728Z,25.10
2023-07-20T05:43:19.926Z,25.20
2023-07-20T05:45:49.194Z,25.10
2023-07-20T05:48:17.848Z,25.30
2023-07-20T05:50:45.237Z,25.50
2023-07-20T05:53:12.526Z,25.60
2023-07-20T05:55:41.399Z,25.80
2023-07-20T05:58:08.578Z,25.90
2023-07-20T06:00:35.846Z,25.80
2023-07-20T06:03:03.331Z,25.90
2023-07-20T06:05:31.920Z,26.10
2023-07-20T06:07:59.597Z,26.10
2023-07-20T06:10:27.879Z,26.20
2023-07-20T06:12:56.953Z,26.20
2023-07-20T06:15:29.140Z,26.10
2023-07-20T06:17:57.854Z,26.40
2023-07-20T06:20:25.659Z,26.60
2023-07-20T06:22:52.961Z,26.70
2023-07-20T06:25:20.295Z,26.80
2023-07-20T06:27:47.329Z,27.00
2023-07-20T06:30:14.570Z,26.90
2023-07-20T06:32:41.772Z,27.00
2023-07-20T06:35:09.643Z,27.10
2023-07-20T06:37:36.988Z,27.20
2023-07-20T06:45:06.005Z,27.60
2023-07-20T06:47:33.274Z,27.80
2023-07-20T06:50:00.383Z,28.00
2023-07-20T06:52:27.613Z,28.20
2023-07-20T06:54:54.747Z,28.10
2023-07-20T06:59:50.381Z,27.30
2023-07-20T07:04:50.291Z,27.00
2023-07-20T07:07:26.782Z,27.10
2023-07-20T07:09:54.173Z,27.50
2023-07-20T07:12:21.257Z,27.70
2023-07-20T07:14:48.449Z,27.80
2023-07-20T07:17:19.584Z,28.00
2023-07-20T07:19:48.945Z,28.00
2023-07-20T07:22:18.675Z,28.10
2023-07-20T07:24:46.952Z,27.90
2023-07-20T07:27:14.354Z,28.30
2023-07-20T07:29:44.994Z,28.30
2023-07-20T07:32:12.432Z,28.30
2023-07-20T07:34:39.918Z,28.20
2023-07-20T07:37:07.904Z,28.30
2023-07-20T07:39:35.868Z,28.00
2023-07-20T07:42:03.357Z,27.90
2023-07-20T07:44:30.612Z,28.10
2023-07-20T07:46:57.733Z,27.80
2023-07-20T07:49:25.244Z,27.90
2023-07-20T07:51:52.870Z,28.10
2023-07-20T07:54:19.975Z,28.20
2023-07-20T07:56:47.128Z,28.20
2023-07-20T07:59:14.392Z,27.90
2023-07-20T08:01:42.012Z,28.00
2023-07-20T08:04:10.373Z,28.00
2023-07-20T08:06:38.738Z,27.90
2023-07-20T08:09:07.128Z,28.10
2023-07-20T08:11:35.894Z,28.20
2023-07-20T08:14:04.818Z,28.10
2023-07-20T08:16:32.748Z,27.90
2023-07-20T08:19:02.399Z,27.40
2023-07-20T08:21:31.073Z,27.70
2023-07-20T08:23:58.633Z,27.80
2023-07-20T08:26:26.354Z,28.20
2023-07-20T08:28:53.859Z,28.40
2023-07-20T08:31:21.704Z,28.50
2023-07-20T08:33:49.798Z,28.60
2023-07-20T08:36:17.785Z,28.60
2023-07-20T08:38:44.909Z,28.80
2023-07-20T08:41:13.726Z,28.90
2023-07-20T08:43:43.805Z,28.80
2023-07-20T08:46:14.335Z,28.90
2023-07-20T08:48:44.262Z,29.00
2023-07-20T08:51:14.044Z,29.00
2023-07-20T08:53:41.864Z,28.90
2023-07-20T08:56:12.548Z,29.10
2023-07-20T08:58:42.924Z,29.00
2023-07-20T09:01:10.734Z,29.20
2023-07-20T09:03:40.562Z,29.20
2023-07-20T09:06:07.661Z,29.30
2023-07-20T09:08:35.203Z,29.00
2023-07-20T09:11:02.455Z,29.30
2023-07-20T09:13:29.693Z,29.50
2023-07-20T09:15:56.912Z,29.20
2023-07-20T09:18:28.950Z,29.20
2023-07-20T09:21:07.521Z,29.20
2023-07-20T09:23:40.809Z,29.20
2023-07-20T09:26:13.557Z,29.20
2023-07-20T09:34:07.900Z,29.40
2023-07-20T09:39:07.345Z,29.20
2023-07-20T09:41:45.497Z,29.10
2023-07-20T09:51:50.630Z,28.90
2023-07-20T09:54:18.770Z,29.10
2023-07-20T09:56:48.846Z,29.20
2023-07-20T09:59:16.409Z,29.20
2023-07-20T10:01:45.159Z,29.10
2023-07-20T10:04:13.862Z,29.20
2023-07-20T10:06:44.983Z,29.10
2023-07-20T10:09:13.840Z,29.20
2023-07-20T10:11:45.564Z,29.50
2023-07-20T10:14:18.393Z,29.50
2023-07-20T10:17:06.146Z,29.20
2023-07-20T10:19:51.424Z,29.20
2023-07-20T10:22:28.364Z,29.30
2023-07-20T10:24:55.836Z,29.20
2023-07-20T10:27:23.298Z,29.20
2023-07-20T10:29:51.479Z,29.30
2023-07-20T10:32:19.980Z,29.40
2023-07-20T10:34:54.506Z,29.40
2023-07-20T10:38:03.420Z,29.50
2023-07-20T10:40:34.320Z,29.50
2023-07-20T10:43:04.506Z,29.50
2023-07-20T10:45:50.468Z,29.30
2023-07-20T10:48:23.365Z,29.20
2023-07-20T10:51:10.196Z,29.50
2023-07-20T10:53:37.435Z,29.50
2023-07-20T10:56:15.231Z,29.00
2023-07-20T10:58:47.320Z,28.80
2023-07-20T11:01:17.074Z,28.70
2023-07-20T11:06:26.515Z,28.80
2023-07-20T11:09:15.993Z,28.60
2023-07-20T11:11:45.319Z,28.60
2023-07-20T11:14:22.446Z,28.80
2023-07-20T11:16:51.957Z,28.60
2023-07-20T11:22:02.476Z,28.30
2023-07-20T11:24:31.226Z,28.30
2023-07-20T11:26:58.464Z,28.60
2023-07-20T11:31:58.420Z,28.80
2023-07-20T11:34:26.113Z,28.70
2023-07-20T11:39:26.947Z,28.90
2023-07-20T11:41:59.104Z,29.10
2023-07-20T11:44:28.564Z,28.90
2023-07-20T11:47:13.155Z,29.00
2023-07-20T11:49:42.354Z,29.20
2023-07-20T11:52:16.601Z,29.30
2023-07-20T11:54:48.559Z,29.20
2023-07-20T11:57:20.177Z,29.20
2023-07-20T11:59:58.908Z,29.20
2023-07-20T12:02:28.552Z,29.20
2023-07-20T12:04:56.216Z,29.20
2023-07-20T12:07:24.075Z,29.10
2023-07-20T12:10:11.299Z,29.10
2023-07-20T12:12:43.403Z,29.20
2023-07-20T12:15:18.849Z,29.30
2023-07-20T12:17:47.402Z,29.30
2023-07-20T12:20:15.318Z,29.30
2023-07-20T12:22:44.716Z,29.30
2023-07-20T12:25:11.838Z,29.40
2023-07-20T12:27:39.028Z,29.60
2023-07-20T12:30:07.684Z,29.50
2023-07-20T12:32:35.390Z,29.40
2023-07-20T12:35:02.656Z,29.40
2023-07-20T12:37:30.092Z,29.50
2023-07-20T12:39:57.802Z,29.60
2023-07-20T12:42:24.908Z,29.50
2023-07-20T12:44:53.345Z,29.40
2023-07-20T12:47:20.770Z,29.40
2023-07-20T12:49:48.020Z,29.30
2023-07-20T12:52:15.148Z,29.50
2023-07-20T12:54:42.880Z,29.20
2023-07-20T12:57:13.316Z,29.00
2023-07-20T12:59:40.670Z,29.10
2023-07-20T13:02:07.772Z,29.00
2023-07-20T13:04:34.882Z,29.00
2023-07-20T13:08:19.927Z,29.00
2023-07-20T13:09:50.676Z,28.90
2023-07-20T13:12:18.325Z,28.90
2023-07-20T13:14:45.337Z,29.20
2023-07-20T13:17:12.362Z,29.20
2023-07-20T13:19:39.494Z,29.30
2023-07-20T13:22:06.590Z,29.20
2023-07-20T13:24:33.774Z,29.40
2023-07-20T13:27:00.922Z,29.50
2023-07-20T13:29:28.059Z,29.50
2023-07-20T13:34:22.888Z,29.40
2023-07-20T13:36:50.327Z,29.40
2023-07-20T13:39:18.106Z,29.50
2023-07-20T13:41:48.616Z,29.50
2023-07-20T13:44:17.344Z,29.60
2023-07-20T13:46:44.976Z,29.60
2023-07-20T13:49:13.473Z,29.50
2023-07-20T13:52:41.891Z,29.30
2023-07-20T13:54:37.751Z,29.30
2023-07-20T13:57:05.226Z,29.40
2023-07-20T13:59:32.323Z,29.40
2023-07-20T14:04:30.310Z,29.60
2023-07-20T14:06:57.831Z,29.60
2023-07-20T14:09:25.339Z,29.60
2023-07-20T14:14:22.408Z,29.70
2023-07-20T14:16:49.554Z,29.60
2023-07-20T14:19:16.712Z,29.60
2023-07-20T14:21:43.864Z,29.60
2023-07-20T14:24:11.095Z,29.50
2023-07-20T14:26:38.159Z,29.60
2023-07-20T14:29:05.313Z,29.60
2023-07-20T14:31:33.921Z,29.40
2023-07-20T14:34:01.034Z,29.30
2023-07-20T14:36:28.366Z,29.30
2023-07-20T14:38:55.750Z,29.30
2023-07-20T14:41:23.013Z,29.30
2023-07-20T14:43:50.095Z,29.30
2023-07-20T14:46:18.976Z,29.20
2023-07-20T14:48:48.642Z,29.20
2023-07-20T14:51:15.913Z,29.20
2023-07-20T14:53:43.399Z,29.30
2023-07-20T14:56:12.270Z,29.10
2023-07-20T14:58:39.327Z,29.20
2023-07-20T15:01:06.497Z,29.20
2023-07-20T15:03:33.734Z,29.20
2023-07-20T15:06:01.032Z,29.20
2023-07-20T15:08:28.118Z,29.30
2023-07-20T15:10:56.390Z,29.10
2023-07-20T15:13:23.440Z,29.10
2023-07-20T15:15:50.820Z,29.20
2023-07-20T15:18:17.906Z,29.10
2023-07-20T15:20:45.114Z,29.10
2023-07-20T15:23:12.413Z,29.00
2023-07-20T15:25:39.609Z,29.00
2023-07-20T15:28:06.768Z,29.00
2023-07-20T15:35:33.997Z,29.00
2023-07-20T15:38:01.492Z,28.90
2023-07-20T15:40:28.733Z,28.90
2023-07-20T15:42:55.839Z,28.90
2023-07-20T15:45:23.609Z,28.80
2023-07-20T15:47:51.076Z,28.90
2023-07-20T15:50:18.443Z,28.90
2023-07-20T15:52:50.772Z,28.80
2023-07-20T15:55:18.551Z,28.70
2023-07-20T15:57:45.657Z,28.70
2023-07-20T16:00:13.271Z,28.70
2023-07-20T16:02:40.883Z,28.70
2023-07-20T16:07:41.590Z,28.60
2023-07-20T16:10:10.738Z,28.60
2023-07-20T16:12:38.368Z,28.60
2023-07-20T16:15:07.484Z,28.50
2023-07-20T16:17:35.033Z,28.50
2023-07-20T16:20:02.166Z,28.50
2023-07-20T16:22:29.249Z,28.50
2023-07-20T16:24:56.652Z,28.50
2023-07-20T16:27:23.876Z,28.50
2023-07-20T16:29:51.142Z,28.40
2023-07-20T16:32:18.248Z,28.40
2023-07-20T16:39:47.909Z,28.30
2023-07-20T16:42:15.223Z,28.30
2023-07-20T16:44:42.248Z,28.10
2023-07-20T16:47:12.759Z,28.00
2023-07-20T16:49:40.227Z,27.90
2023-07-20T16:52:07.692Z,27.90
2023-07-20T16:54:34.799Z,27.80
2023-07-20T16:57:01.868Z,27.80
2023-07-20T16:59:28.951Z,27.90
2023-07-20T17:01:56.256Z,27.90
2023-07-20T17:04:23.398Z,27.80
2023-07-20T17:06:50.534Z,27.70
2023-07-20T17:09:18.312Z,27.70
2023-07-20T17:11:45.407Z,27.70
2023-07-20T17:14:12.670Z,27.70
2023-07-20T17:16:39.804Z,27.70
2023-07-20T17:19:09.394Z,27.70
2023-07-20T17:21:38.069Z,27.60
2023-07-20T17:24:05.804Z,27.60
2023-07-20T17:29:04.922Z,27.60
2023-07-20T17:31:32.719Z,27.60
2023-07-20T17:34:00.781Z,27.50
2023-07-20T17:38:58.474Z,27.40
2023-07-20T17:41:26.178Z,27.40
2023-07-20T17:43:54.174Z,27.30
2023-07-20T17:48:51.830Z,27.20
2023-07-20T17:51:19.478Z,27.20
2023-07-20T17:53:47.466Z,27.10
2023-07-20T17:56:15.229Z,27.10
2023-07-20T17:58:43.115Z,27.00
2023-07-20T18:01:10.386Z,27.00
2023-07-20T18:03:38.668Z,26.90
2023-07-20T18:06:08.393Z,26.90
2023-07-20T18:08:37.335Z,26.90
2023-07-20T18:11:09.161Z,27.00
2023-07-20T18:13:36.285Z,26.90
2023-07-20T18:16:04.002Z,26.90
2023-07-20T18:18:31.725Z,26.80
2023-07-20T18:20:58.833Z,26.80
2023-07-20T18:23:26.509Z,26.70
2023-07-20T18:25:54.185Z,26.70
2023-07-20T18:28:22.217Z,26.70
2023-07-20T18:30:49.866Z,26.60
2023-07-20T18:33:18.548Z,26.60
2023-07-20T18:35:46.645Z,26.50
2023-07-20T18:38:14.802Z,26.40
2023-07-20T18:40:42.362Z,26.30
2023-07-20T18:43:09.739Z,26.30
2023-07-20T18:45:37.381Z,26.20
2023-07-20T18:48:05.499Z,26.20
2023-07-20T18:50:33.082Z,26.20
2023-07-20T18:53:01.627Z,26.20
2023-07-20T18:55:31.996Z,26.20
2023-07-20T18:57:59.879Z,26.10
2023-07-20T19:00:27.418Z,26.00
2023-07-20T19:02:55.345Z,26.00
2023-07-20T19:05:23.291Z,25.90
2023-07-20T19:07:51.111Z,25.90
2023-07-20T19:10:18.961Z,25.90
2023-07-20T19:12:46.970Z,25.90
2023-07-20T19:15:14.832Z,25.80
2023-07-20T19:17:42.407Z,25.80
2023-07-20T19:20:16.242Z,25.70
2023-07-20T19:22:44.932Z,25.70
2023-07-20T19:25:13.292Z,25.70
2023-07-20T19:27:42.551Z,25.70
2023-07-20T19:30:10.931Z,25.70
2023-07-20T19:32:38.718Z,25.60
2023-07-20T19:35:08.017Z,25.60
2023-07-20T19:37:37.620Z,25.50
2023-07-20T19:40:06.894Z,25.50
2023-07-20T19:42:34.583Z,25.40
2023-07-20T19:45:02.624Z,25.40
2023-07-20T19:47:33.756Z,25.40
2023-07-20T19:50:01.303Z,25.40
2023-07-20T19:52:29.357Z,25.40
2023-07-20T19:54:57.083Z,25.30
2023-07-20T19:59:57.381Z,25.30
2023-07-20T20:03:40.243Z,25.30
2023-07-20T20:05:16.350Z,25.30
2023-07-20T20:07:49.096Z,25.20
2023-07-20T20:10:18.356Z,25.20
2023-07-20T20:12:46.226Z,25.20
2023-07-20T20:15:14.213Z,25.20
2023-07-20T20:17:43.721Z,25.20
2023-07-20T20:20:13.933Z,25.10
2023-07-20T20:25:50.868Z,25.10
2023-07-20T20:28:19.576Z,25.10
2023-07-20T20:34:23.672Z,25.10
2023-07-20T21:08:38.495Z,24.60
2023-07-20T23:08:36.363Z,22.20
